Time;durP1;ratioP1;P1;durP2;ratioP2;P2;SDS_P1;SDS_P2;PMS_P1;PMS_P2;Temp;Humidity;BMP_temperature;BMP_pressure;BME280_temperature;BME280_humidity;BME280_pressure;Samples;Min_cycle;Max_cycle;Signal;HPM_P1;HPM_P2
2023/03/15 00:01:02;;;;;;;14.35;9.00;;;;;;;;;;5040390;28;20099;-64
2023/03/15 00:03:27;;;;;;;18.50;9.38;;;;;;;;;;5039420;28;20044;-65
2023/03/15 00:05:52;;;;;;;22.45;8.93;;;;;;;;;;5049594;28;20510;-65
2023/03/15 00:08:18;;;;;;;19.58;9.23;;;;;;;;;;5040418;28;20037;-65
2023/03/15 00:10:44;;;;;;;22.77;8.82;;;;;;;;;;5051873;28;20091;-65
2023/03/15 00:13:10;;;;;;;17.98;8.95;;;;;;;;;;5052398;28;20090;-65
2023/03/15 00:15:36;;;;;;;15.70;9.05;;;;;;;;;;5051285;28;20447;-65
2023/03/15 00:18:02;;;;;;;14.85;8.73;;;;;;;;;;5051523;28;20028;-65
2023/03/15 00:20:27;;;;;;;16.35;9.38;;;;;;;;;;5051358;28;20021;-65
2023/03/15 00:22:53;;;;;;;20.13;10.00;;;;;;;;;;5039869;28;20075;-65
2023/03/15 00:25:18;;;;;;;13.82;8.57;;;;;;;;;;5049672;28;20434;-65
2023/03/15 00:27:43;;;;;;;18.08;9.23;;;;;;;;;;5051858;28;20032;-64
2023/03/15 00:30:09;;;;;;;17.58;9.30;;;;;;;;;;5021021;28;20035;-65
2023/03/15 00:32:34;;;;;;;17.00;8.63;;;;;;;;;;5005601;28;20843;-65
2023/03/15 00:35:00;;;;;;;20.88;9.68;;;;;;;;;;5006097;28;20893;-65
2023/03/15 00:37:26;;;;;;;15.43;9.48;;;;;;;;;;5009625;28;20040;-65
2023/03/15 00:39:54;;;;;;;20.25;9.85;;;;;;;;;;5051482;28;20079;-65
2023/03/15 00:42:20;;;;;;;17.23;9.55;;;;;;;;;;5052001;28;20383;-65
2023/03/15 00:44:45;;;;;;;14.35;9.30;;;;;;;;;;5049623;28;20025;-66
2023/03/15 00:47:11;;;;;;;15.02;8.77;;;;;;;;;;5051954;28;20087;-65
2023/03/15 00:49:36;;;;;;;24.00;9.05;;;;;;;;;;5050644;28;20104;-66
2023/03/15 00:52:02;;;;;;;23.75;11.13;;;;;;;;;;5051828;28;20486;-68
2023/03/15 00:54:27;;;;;;;20.15;10.73;;;;;;;;;;5050321;28;20028;-69
2023/03/15 00:56:52;;;;;;;23.23;11.85;;;;;;;;;;5052219;28;20025;-70
2023/03/15 00:59:18;;;;;;;16.83;9.50;;;;;;;;;;5049856;28;20031;-71
2023/03/15 01:01:43;;;;;;;17.80;10.68;;;;;;;;;;5051619;28;20041;-73
2023/03/15 01:04:12;;;;;;;19.13;11.82;;;;;;;;;;5049014;28;20364;-72
2023/03/15 01:06:37;;;;;;;16.63;10.23;;;;;;;;;;5043534;28;20029;-72
2023/03/15 01:09:03;;;;;;;13.40;10.55;;;;;;;;;;5052196;28;20337;-72
2023/03/15 01:11:28;;;;;;;16.60;11.23;;;;;;;;;;5052698;28;20162;-72
2023/03/15 01:13:55;;;;;;;17.73;11.43;;;;;;;;;;5047058;28;20093;-70
2023/03/15 01:16:20;;;;;;;24.58;11.73;;;;;;;;;;5046069;28;20049;-70
2023/03/15 01:18:46;;;;;;;14.73;11.05;;;;;;;;;;5051699;28;20492;-70
2023/03/15 01:21:13;;;;;;;19.00;10.43;;;;;;;;;;5050782;28;20109;-69
2023/03/15 01:23:38;;;;;;;20.48;10.82;;;;;;;;;;5051465;28;20036;-69
2023/03/15 01:26:05;;;;;;;16.88;10.52;;;;;;;;;;5042669;28;20022;-69
2023/03/15 01:28:30;;;;;;;16.17;10.57;;;;;;;;;;5032776;28;20053;-69
2023/03/15 01:30:55;;;;;;;15.27;9.95;;;;;;;;;;5033323;28;20025;-69
2023/03/15 01:33:21;;;;;;;14.93;9.73;;;;;;;;;;5045565;28;20032;-69
2023/03/15 01:35:46;;;;;;;16.75;10.45;;;;;;;;;;5033376;28;20083;-69
2023/03/15 01:38:12;;;;;;;14.48;9.68;;;;;;;;;;5034168;28;20037;-71
2023/03/15 01:40:41;;;;;;;13.18;9.68;;;;;;;;;;5043361;28;20021;-70
2023/03/15 01:43:06;;;;;;;14.70;9.10;;;;;;;;;;5052215;28;20134;-70
2023/03/15 01:45:50;;;;;;;12.48;8.60;;;;;;;;;;5035595;28;20025;-69
2023/03/15 01:48:15;;;;;;;10.90;7.90;;;;;;;;;;5033006;28;20116;-69
2023/03/15 01:50:41;;;;;;;11.95;7.85;;;;;;;;;;5033234;28;20057;-68
2023/03/15 01:53:06;;;;;;;9.35;6.50;;;;;;;;;;5033054;28;20071;-68
2023/03/15 01:55:31;;;;;;;11.63;7.68;;;;;;;;;;5033930;28;20036;-68
2023/03/15 01:57:59;;;;;;;11.95;8.07;;;;;;;;;;5033725;28;20037;-69
2023/03/15 02:00:25;;;;;;;13.07;8.57;;;;;;;;;;5050497;28;20027;-69
2023/03/15 02:02:56;;;;;;;18.75;8.57;;;;;;;;;;5049123;28;20483;-69
2023/03/15 02:05:27;;;;;;;11.02;8.27;;;;;;;;;;5036047;28;20079;-70
2023/03/15 02:07:53;;;;;;;12.50;7.65;;;;;;;;;;5044343;28;20025;-70
2023/03/15 02:10:30;;;;;;;13.60;7.82;;;;;;;;;;5054600;28;20079;-69
2023/03/15 02:12:57;;;;;;;10.73;7.78;;;;;;;;;;5055095;28;20025;-69
2023/03/15 02:15:22;;;;;;;10.68;7.35;;;;;;;;;;5055875;28;20031;-69
2023/03/15 02:17:48;;;;;;;9.32;6.90;;;;;;;;;;5055309;28;20112;-70
2023/03/15 02:20:31;;;;;;;9.60;7.45;;;;;;;;;;5055551;28;20047;-69
2023/03/15 02:23:01;;;;;;;11.05;7.70;;;;;;;;;;5055055;28;20028;-70
2023/03/15 02:25:53;;;;;;;10.63;7.22;;;;;;;;;;5054751;28;20031;-71
2023/03/15 02:28:19;;;;;;;10.75;7.78;;;;;;;;;;5042102;28;20063;-71
2023/03/15 02:30:44;;;;;;;11.40;8.05;;;;;;;;;;5053190;28;20423;-71
2023/03/15 02:33:14;;;;;;;9.93;8.00;;;;;;;;;;5054632;28;20039;-71
2023/03/15 02:35:39;;;;;;;10.82;8.15;;;;;;;;;;5053997;28;20067;-71
2023/03/15 02:38:05;;;;;;;11.32;8.48;;;;;;;;;;5045444;28;20025;-71
2023/03/15 02:40:30;;;;;;;13.45;9.27;;;;;;;;;;5035589;28;20055;-71
2023/03/15 02:42:58;;;;;;;14.50;9.70;;;;;;;;;;5035809;28;20412;-71
2023/03/15 02:45:24;;;;;;;11.82;9.30;;;;;;;;;;5036684;28;20472;-70
2023/03/15 02:47:49;;;;;;;13.88;10.00;;;;;;;;;;5055155;28;20025;-70
2023/03/15 02:50:15;;;;;;;11.80;9.77;;;;;;;;;;5049478;28;20116;-69
2023/03/15 02:52:40;;;;;;;17.17;9.98;;;;;;;;;;5007377;28;20836;-68
2023/03/15 02:55:06;;;;;;;16.33;10.27;;;;;;;;;;5009711;28;20961;-68
2023/03/15 02:57:31;;;;;;;15.52;10.50;;;;;;;;;;5008372;28;20071;-68
2023/03/15 02:59:57;;;;;;;12.40;10.30;;;;;;;;;;4994716;28;20025;-68
2023/03/15 03:02:22;;;;;;;14.07;10.52;;;;;;;;;;4997160;28;20966;-68
2023/03/15 03:04:48;;;;;;;13.57;10.73;;;;;;;;;;4997192;28;20024;-68
2023/03/15 03:07:13;;;;;;;18.65;12.07;;;;;;;;;;5007491;28;20017;-68
2023/03/15 03:09:38;;;;;;;16.48;12.32;;;;;;;;;;5012652;28;20036;-68
2023/03/15 03:12:04;;;;;;;16.85;13.15;;;;;;;;;;5054602;28;20033;-69
2023/03/15 03:14:30;;;;;;;18.77;13.30;;;;;;;;;;5050039;28;20076;-69
2023/03/15 03:16:55;;;;;;;16.80;13.48;;;;;;;;;;5046097;28;20072;-69
2023/03/15 03:19:24;;;;;;;16.27;13.45;;;;;;;;;;5048429;28;20021;-72
2023/03/15 03:21:51;;;;;;;19.80;12.85;;;;;;;;;;5015796;28;20017;-72
2023/03/15 03:24:16;;;;;;;21.83;13.07;;;;;;;;;;4999609;28;20601;-71
2023/03/15 03:26:44;;;;;;;16.70;14.00;;;;;;;;;;5014675;28;20132;-70
2023/03/15 03:29:10;;;;;;;14.68;13.02;;;;;;;;;;5007377;28;20021;-70
2023/03/15 03:31:35;;;;;;;18.00;13.98;;;;;;;;;;5007691;28;20143;-70
2023/03/15 03:34:01;;;;;;;22.90;15.13;;;;;;;;;;5008779;28;20017;-70
2023/03/15 03:36:26;;;;;;;19.05;14.27;;;;;;;;;;5039580;28;20471;-71
2023/03/15 03:38:52;;;;;;;18.85;14.98;;;;;;;;;;5022593;28;20033;-71
2023/03/15 03:41:18;;;;;;;21.35;15.45;;;;;;;;;;5005366;28;20140;-70
2023/03/15 03:43:43;;;;;;;17.90;14.02;;;;;;;;;;5008661;28;20040;-70
2023/03/15 03:46:08;;;;;;;24.90;16.48;;;;;;;;;;5052724;28;20461;-70
2023/03/15 03:48:33;;;;;;;19.17;15.95;;;;;;;;;;5054254;28;20033;-70
2023/03/15 03:50:59;;;;;;;21.20;14.95;;;;;;;;;;5053758;28;20529;-69
2023/03/15 03:53:24;;;;;;;24.20;16.17;;;;;;;;;;5053315;28;20017;-69
2023/03/15 03:55:50;;;;;;;28.35;16.88;;;;;;;;;;5053716;28;20058;-69
2023/03/15 03:58:15;;;;;;;20.58;15.60;;;;;;;;;;5053017;28;20029;-69
2023/03/15 04:00:40;;;;;;;19.65;15.93;;;;;;;;;;5053550;28;20056;-69
2023/03/15 04:03:06;;;;;;;27.35;16.80;;;;;;;;;;5053106;28;20055;-69
2023/03/15 04:05:31;;;;;;;23.75;17.50;;;;;;;;;;5040040;28;20075;-68
2023/03/15 04:07:56;;;;;;;26.08;16.60;;;;;;;;;;5046842;28;20515;-68
2023/03/15 04:10:25;;;;;;;22.05;17.52;;;;;;;;;;5035577;28;20032;-69
2023/03/15 04:12:52;;;;;;;32.13;16.98;;;;;;;;;;4995939;28;20024;-69
2023/03/15 04:15:17;;;;;;;26.10;17.75;;;;;;;;;;5007479;28;20021;-70
2023/03/15 04:17:42;;;;;;;31.48;18.33;;;;;;;;;;5008853;28;20476;-69
2023/03/15 04:20:10;;;;;;;25.92;16.70;;;;;;;;;;5047074;28;20025;-69
2023/03/15 04:22:36;;;;;;;26.63;16.88;;;;;;;;;;5037660;28;20022;-69
2023/03/15 04:25:01;;;;;;;24.85;18.17;;;;;;;;;;5038251;28;20031;-69
2023/03/15 04:27:27;;;;;;;29.88;18.50;;;;;;;;;;5033901;28;20371;-69
2023/03/15 04:29:53;;;;;;;24.00;16.80;;;;;;;;;;5033457;28;20096;-69
2023/03/15 04:32:18;;;;;;;25.67;18.08;;;;;;;;;;5033638;28;20068;-69
2023/03/15 04:34:43;;;;;;;21.92;17.08;;;;;;;;;;5033619;28;20030;-69
2023/03/15 04:37:09;;;;;;;19.92;15.93;;;;;;;;;;5042987;28;20032;-69
2023/03/15 04:39:34;;;;;;;22.25;17.25;;;;;;;;;;5036873;28;20049;-69
2023/03/15 04:41:59;;;;;;;27.42;18.17;;;;;;;;;;5034425;28;20499;-69
2023/03/15 04:44:25;;;;;;;23.90;16.88;;;;;;;;;;5035177;28;20029;-69
2023/03/15 04:46:51;;;;;;;20.83;16.75;;;;;;;;;;5034593;28;20057;-69
2023/03/15 04:49:16;;;;;;;21.80;16.13;;;;;;;;;;5039297;28;20033;-69
2023/03/15 04:51:41;;;;;;;20.65;16.00;;;;;;;;;;5044111;28;20104;-69
2023/03/15 04:54:06;;;;;;;25.13;17.25;;;;;;;;;;5047315;28;20028;-69
2023/03/15 04:56:32;;;;;;;26.88;17.85;;;;;;;;;;5052485;28;20029;-69
2023/03/15 04:58:57;;;;;;;26.20;16.48;;;;;;;;;;5051231;28;20021;-69
2023/03/15 05:01:26;;;;;;;26.55;17.85;;;;;;;;;;5033373;28;20087;-69
2023/03/15 05:03:52;;;;;;;24.27;17.15;;;;;;;;;;5034589;28;20025;-69
2023/03/15 05:06:17;;;;;;;25.92;18.15;;;;;;;;;;5033975;28;20395;-69
2023/03/15 05:08:44;;;;;;;31.40;20.77;;;;;;;;;;5034298;28;20536;-69
2023/03/15 05:11:09;;;;;;;34.33;18.58;;;;;;;;;;5051334;28;20044;-69
2023/03/15 05:13:35;;;;;;;28.55;20.88;;;;;;;;;;5041038;28;20025;-69
2023/03/15 05:16:01;;;;;;;31.45;20.67;;;;;;;;;;5046337;28;20029;-69
2023/03/15 05:18:26;;;;;;;29.08;20.30;;;;;;;;;;5052438;28;20025;-68
2023/03/15 05:20:54;;;;;;;24.77;18.55;;;;;;;;;;5052074;28;20028;-69
2023/03/15 05:23:21;;;;;;;32.25;19.42;;;;;;;;;;5028389;28;20032;-68
2023/03/15 05:25:52;;;;;;;26.90;18.70;;;;;;;;;;5033428;28;20103;-68
2023/03/15 05:28:18;;;;;;;27.38;18.08;;;;;;;;;;5045067;28;20116;-68
2023/03/15 05:30:43;;;;;;;23.55;16.83;;;;;;;;;;5032920;28;20096;-68
2023/03/15 05:33:08;;;;;;;23.85;17.35;;;;;;;;;;5039908;28;20032;-67
2023/03/15 05:35:33;;;;;;;24.77;16.92;;;;;;;;;;5051486;28;20028;-67
2023/03/15 05:38:00;;;;;;;29.90;16.58;;;;;;;;;;5022398;28;20025;-68
2023/03/15 05:40:28;;;;;;;21.63;14.82;;;;;;;;;;5005058;28;20489;-67
2023/03/15 05:42:53;;;;;;;21.25;16.30;;;;;;;;;;5042558;28;20024;-67
2023/03/15 05:45:19;;;;;;;21.02;14.82;;;;;;;;;;5056169;28;20082;-67
2023/03/15 05:47:44;;;;;;;20.38;15.05;;;;;;;;;;5055824;28;20044;-67
2023/03/15 05:50:10;;;;;;;17.50;13.32;;;;;;;;;;5056313;28;20063;-67
2023/03/15 05:52:35;;;;;;;18.95;13.02;;;;;;;;;;5056424;28;20040;-67
2023/03/15 05:55:00;;;;;;;17.75;13.52;;;;;;;;;;5056182;28;20028;-67
2023/03/15 05:57:25;;;;;;;22.65;15.10;;;;;;;;;;5055728;28;20025;-66
2023/03/15 05:59:51;;;;;;;18.58;13.43;;;;;;;;;;5056329;28;20115;-67
2023/03/15 06:02:16;;;;;;;19.15;13.43;;;;;;;;;;5045767;28;20028;-66
2023/03/15 06:04:41;;;;;;;23.88;14.82;;;;;;;;;;5048909;28;20468;-66
2023/03/15 06:07:06;;;;;;;27.15;15.25;;;;;;;;;;5043111;28;20028;-66
2023/03/15 06:09:32;;;;;;;21.02;13.68;;;;;;;;;;5044972;28;20032;-66
2023/03/15 06:11:58;;;;;;;22.08;14.57;;;;;;;;;;5056332;28;20039;-66
2023/03/15 06:14:23;;;;;;;24.17;15.02;;;;;;;;;;5055039;28;20549;-66
2023/03/15 06:16:49;;;;;;;19.90;14.95;;;;;;;;;;5055992;28;20029;-66
2023/03/15 06:19:14;;;;;;;20.02;15.38;;;;;;;;;;5055305;28;20056;-66
2023/03/15 06:21:39;;;;;;;22.17;15.95;;;;;;;;;;5055496;28;20044;-66
2023/03/15 06:24:05;;;;;;;22.88;15.73;;;;;;;;;;5053099;28;20071;-65
2023/03/15 06:26:30;;;;;;;24.88;16.27;;;;;;;;;;4996343;28;20114;-66
2023/03/15 06:28:55;;;;;;;19.48;15.23;;;;;;;;;;5010160;28;20025;-66
2023/03/15 06:31:21;;;;;;;27.83;16.73;;;;;;;;;;5012238;28;20860;-66
2023/03/15 06:33:46;;;;;;;22.70;17.30;;;;;;;;;;5011183;28;20031;-66
2023/03/15 06:36:11;;;;;;;24.77;17.52;;;;;;;;;;5009656;28;20056;-65
2023/03/15 06:38:37;;;;;;;31.90;19.00;;;;;;;;;;5004949;28;20882;-66
2023/03/15 06:41:03;;;;;;;24.73;19.05;;;;;;;;;;5010401;28;20919;-66
2023/03/15 06:43:29;;;;;;;25.77;19.15;;;;;;;;;;5009215;28;20104;-66
2023/03/15 06:45:57;;;;;;;28.25;18.63;;;;;;;;;;5009888;28;20949;-66
2023/03/15 06:48:23;;;;;;;28.45;19.60;;;;;;;;;;5009995;28;20025;-66
2023/03/15 06:50:48;;;;;;;24.35;19.02;;;;;;;;;;5009447;28;20048;-66
2023/03/15 06:53:14;;;;;;;29.13;18.30;;;;;;;;;;5004693;28;20021;-66
2023/03/15 06:55:39;;;;;;;25.40;19.40;;;;;;;;;;5007013;28;20025;-66
2023/03/15 06:58:04;;;;;;;30.17;19.05;;;;;;;;;;5011794;28;20020;-66
2023/03/15 07:00:29;;;;;;;29.02;18.83;;;;;;;;;;5053082;28;20465;-66
2023/03/15 07:02:55;;;;;;;30.50;20.52;;;;;;;;;;5047833;28;20048;-65
2023/03/15 07:05:20;;;;;;;29.77;21.23;;;;;;;;;;5049924;28;20113;-66
2023/03/15 07:07:45;;;;;;;26.58;18.67;;;;;;;;;;5048103;28;20029;-66
2023/03/15 07:10:11;;;;;;;34.85;21.23;;;;;;;;;;5025229;28;20032;-65
2023/03/15 07:12:36;;;;;;;30.88;22.23;;;;;;;;;;5053229;28;20031;-65
2023/03/15 07:15:01;;;;;;;28.02;20.88;;;;;;;;;;5050693;28;20484;-65
2023/03/15 07:17:26;;;;;;;33.45;22.33;;;;;;;;;;5042456;28;20041;-65
2023/03/15 07:19:52;;;;;;;33.78;23.10;;;;;;;;;;5053201;28;20027;-65
2023/03/15 07:22:17;;;;;;;34.28;25.38;;;;;;;;;;5050060;28;20110;-65
2023/03/15 07:24:42;;;;;;;41.78;25.88;;;;;;;;;;5038501;28;20028;-65
2023/03/15 07:27:11;;;;;;;40.15;27.48;;;;;;;;;;5032936;28;20399;-66
2023/03/15 07:29:36;;;;;;;30.13;23.92;;;;;;;;;;5043868;28;20097;-65
2023/03/15 07:32:01;;;;;;;42.88;24.40;;;;;;;;;;5040909;28;20091;-66
2023/03/15 07:34:27;;;;;;;36.33;23.17;;;;;;;;;;5049274;28;20479;-65
2023/03/15 07:36:52;;;;;;;35.97;23.67;;;;;;;;;;5036228;28;20475;-66
2023/03/15 07:39:17;;;;;;;36.13;24.98;;;;;;;;;;5040959;28;20040;-65
2023/03/15 07:41:43;;;;;;;35.30;25.08;;;;;;;;;;5036202;28;20132;-66
2023/03/15 07:44:08;;;;;;;35.63;24.90;;;;;;;;;;5040802;28;20025;-65
2023/03/15 07:46:33;;;;;;;36.40;25.05;;;;;;;;;;5019990;28;20203;-65
2023/03/15 07:48:59;;;;;;;39.58;27.10;;;;;;;;;;5008500;28;20033;-66
2023/03/15 07:51:24;;;;;;;37.10;26.60;;;;;;;;;;5007991;28;20828;-66
2023/03/15 07:53:50;;;;;;;42.20;27.80;;;;;;;;;;5009759;28;20029;-66
2023/03/15 07:56:15;;;;;;;40.40;28.40;;;;;;;;;;5007188;28;20035;-66
2023/03/15 07:58:40;;;;;;;43.80;29.60;;;;;;;;;;5006338;28;20052;-66
2023/03/15 08:01:05;;;;;;;40.53;29.52;;;;;;;;;;5007822;28;20040;-66
2023/03/15 08:03:31;;;;;;;37.92;28.15;;;;;;;;;;5005620;28;20025;-67
2023/03/15 08:05:56;;;;;;;41.90;30.10;;;;;;;;;;5007175;28;20028;-66
2023/03/15 08:08:22;;;;;;;45.55;31.15;;;;;;;;;;5008164;28;20041;-66
2023/03/15 08:10:47;;;;;;;45.00;31.20;;;;;;;;;;5006983;28;20029;-66
2023/03/15 08:13:12;;;;;;;37.33;28.70;;;;;;;;;;5004807;28;20855;-65
2023/03/15 08:15:38;;;;;;;36.20;27.00;;;;;;;;;;5009844;28;20802;-66
2023/03/15 08:18:03;;;;;;;41.25;29.58;;;;;;;;;;5009373;28;20862;-66
2023/03/15 08:20:29;;;;;;;42.42;29.50;;;;;;;;;;5001979;28;20130;-66
2023/03/15 08:22:54;;;;;;;41.28;26.67;;;;;;;;;;5007197;28;20025;-67
2023/03/15 08:25:22;;;;;;;40.78;27.45;;;;;;;;;;5005384;28;20032;-67
2023/03/15 08:27:48;;;;;;;39.88;28.42;;;;;;;;;;5002211;28;20132;-68
2023/03/15 08:30:14;;;;;;;34.75;25.88;;;;;;;;;;5000810;28;20027;-67
2023/03/15 08:32:40;;;;;;;33.00;23.02;;;;;;;;;;5002499;28;20132;-67
2023/03/15 08:35:06;;;;;;;37.10;24.63;;;;;;;;;;5003519;28;20025;-67
2023/03/15 08:37:31;;;;;;;36.55;23.40;;;;;;;;;;5009229;28;20040;-67
2023/03/15 08:39:59;;;;;;;32.33;22.23;;;;;;;;;;5000002;28;20182;-67
2023/03/15 08:42:25;;;;;;;32.97;22.65;;;;;;;;;;5001637;28;20040;-67
2023/03/15 08:44:50;;;;;;;32.22;20.42;;;;;;;;;;5006812;28;20361;-67
2023/03/15 08:47:16;;;;;;;31.02;19.55;;;;;;;;;;5006851;28;20128;-66
2023/03/15 08:49:41;;;;;;;29.05;20.25;;;;;;;;;;5005759;28;20809;-66
2023/03/15 08:52:06;;;;;;;26.58;17.95;;;;;;;;;;5009251;28;20031;-66
2023/03/15 08:54:31;;;;;;;22.92;17.25;;;;;;;;;;5012407;28;20021;-66
2023/03/15 08:56:57;;;;;;;21.02;14.90;;;;;;;;;;5010792;28;21104;-67
2023/03/15 08:59:22;;;;;;;22.30;14.60;;;;;;;;;;5005728;28;20032;-66
2023/03/15 09:01:47;;;;;;;19.95;15.63;;;;;;;;;;5028297;28;20060;-66
2023/03/15 09:04:13;;;;;;;24.92;16.38;;;;;;;;;;5006256;28;20021;-66
2023/03/15 09:06:38;;;;;;;24.60;15.65;;;;;;;;;;5007513;28;20033;-66
2023/03/15 09:09:03;;;;;;;19.58;10.63;;;;;;;;;;5005921;28;20959;-66
2023/03/15 09:11:28;;;;;;;18.17;10.50;;;;;;;;;;5009225;28;20065;-67
2023/03/15 09:13:54;;;;;;;11.45;6.90;;;;;;;;;;5023501;28;20017;-68
2023/03/15 09:16:19;;;;;;;12.90;7.88;;;;;;;;;;5019953;28;20082;-67
2023/03/15 09:18:44;;;;;;;12.82;8.23;;;;;;;;;;4998367;28;20826;-67
2023/03/15 09:21:09;;;;;;;12.63;9.20;;;;;;;;;;5002202;28;20033;-67
2023/03/15 09:23:35;;;;;;;11.80;8.15;;;;;;;;;;5003425;28;20139;-67
2023/03/15 09:26:00;;;;;;;12.77;7.82;;;;;;;;;;5010263;28;20025;-67
2023/03/15 09:28:25;;;;;;;13.70;7.45;;;;;;;;;;5016771;28;20055;-67
2023/03/15 09:30:51;;;;;;;7.82;5.45;;;;;;;;;;5004782;28;20845;-67
2023/03/15 09:33:17;;;;;;;10.80;5.70;;;;;;;;;;5001756;28;20033;-67
2023/03/15 09:35:43;;;;;;;9.07;5.05;;;;;;;;;;5005332;28;20029;-67
2023/03/15 09:38:08;;;;;;;10.27;4.72;;;;;;;;;;5004838;28;20025;-67
2023/03/15 09:40:38;;;;;;;10.45;4.60;;;;;;;;;;5043055;28;20009;-67
2023/03/15 09:43:03;;;;;;;11.68;4.55;;;;;;;;;;5021825;28;20945;-67
2023/03/15 09:45:47;;;;;;;13.43;4.72;;;;;;;;;;5005617;28;20030;-67
2023/03/15 09:48:22;;;;;;;8.73;4.97;;;;;;;;;;4998264;28;20036;-67
2023/03/15 09:51:01;;;;;;;10.77;5.63;;;;;;;;;;4997342;28;20025;-67
2023/03/15 09:53:31;;;;;;;6.15;4.28;;;;;;;;;;4999212;28;20021;-67
2023/03/15 09:55:57;;;;;;;8.35;4.25;;;;;;;;;;5024730;28;20050;-67
2023/03/15 09:58:24;;;;;;;9.38;4.90;;;;;;;;;;4998800;28;20017;-67
2023/03/15 10:00:51;;;;;;;12.50;4.68;;;;;;;;;;5007419;28;20126;-67
2023/03/15 10:03:30;;;;;;;7.20;2.67;;;;;;;;;;5004896;28;20029;-70
2023/03/15 10:05:57;;;;;;;8.30;3.22;;;;;;;;;;5005107;28;20881;-67
2023/03/15 10:08:23;;;;;;;5.90;3.00;;;;;;;;;;5006012;28;20021;-67
2023/03/15 10:11:03;;;;;;;7.78;2.78;;;;;;;;;;5004957;28;20017;-67
2023/03/15 10:13:29;;;;;;;9.88;3.33;;;;;;;;;;5021548;28;20040;-67
2023/03/15 10:16:03;;;;;;;7.43;2.90;;;;;;;;;;5049710;28;20104;-67
2023/03/15 10:18:49;;;;;;;10.48;2.80;;;;;;;;;;5030875;28;20874;-67
2023/03/15 10:21:29;;;;;;;11.15;3.75;;;;;;;;;;4995588;28;20914;-67
2023/03/15 10:23:54;;;;;;;10.90;3.22;;;;;;;;;;5004914;28;20055;-66
2023/03/15 10:26:31;;;;;;;8.48;4.10;;;;;;;;;;5006292;28;20032;-66
2023/03/15 10:28:57;;;;;;;7.07;3.83;;;;;;;;;;5040106;28;20037;-66
2023/03/15 10:31:29;;;;;;;11.20;5.28;;;;;;;;;;5053256;28;20112;-68
2023/03/15 10:33:55;;;;;;;10.00;4.65;;;;;;;;;;5035895;28;20032;-66
2023/03/15 10:36:22;;;;;;;8.70;3.80;;;;;;;;;;5024707;28;20037;-66
2023/03/15 10:38:49;;;;;;;7.93;3.75;;;;;;;;;;5029788;28;20028;-65
2023/03/15 10:41:26;;;;;;;8.85;3.10;;;;;;;;;;5049620;28;20029;-65
2023/03/15 10:44:02;;;;;;;6.22;2.42;;;;;;;;;;5004380;28;20060;-66
2023/03/15 10:46:28;;;;;;;7.68;2.88;;;;;;;;;;5002285;28;20080;-66
2023/03/15 10:48:57;;;;;;;6.40;2.75;;;;;;;;;;5032028;28;20033;-65
2023/03/15 10:51:30;;;;;;;9.88;2.35;;;;;;;;;;5048134;28;20028;-66
2023/03/15 10:54:04;;;;;;;4.65;2.33;;;;;;;;;;5041368;28;20032;-65
2023/03/15 10:56:30;;;;;;;12.02;2.30;;;;;;;;;;5048815;28;20056;-65
2023/03/15 10:58:56;;;;;;;6.93;2.10;;;;;;;;;;5048064;28;20082;-65
2023/03/15 11:01:26;;;;;;;9.13;2.30;;;;;;;;;;5049033;28;20543;-65
2023/03/15 11:04:06;;;;;;;6.22;2.30;;;;;;;;;;5049939;28;20484;-65
2023/03/15 11:06:38;;;;;;;5.10;2.53;;;;;;;;;;5043979;28;20371;-65
2023/03/15 11:09:07;;;;;;;4.88;1.92;;;;;;;;;;5045437;28;20036;-65
2023/03/15 11:11:56;;;;;;;5.10;2.45;;;;;;;;;;5049231;28;20033;-65
2023/03/15 11:14:21;;;;;;;7.32;3.10;;;;;;;;;;5035590;28;20090;-65
2023/03/15 11:16:48;;;;;;;8.77;2.90;;;;;;;;;;5053685;28;20025;-66
2023/03/15 11:19:17;;;;;;;6.60;2.90;;;;;;;;;;5050641;28;20036;-65
2023/03/15 11:21:43;;;;;;;7.93;2.42;;;;;;;;;;5046805;28;20029;-65
2023/03/15 11:24:14;;;;;;;9.10;2.20;;;;;;;;;;5053528;28;20060;-65
2023/03/15 11:26:40;;;;;;;5.55;2.47;;;;;;;;;;5040297;28;20108;-65
2023/03/15 11:29:14;;;;;;;7.75;2.53;;;;;;;;;;5053234;28;20113;-65
2023/03/15 11:31:39;;;;;;;7.18;2.67;;;;;;;;;;5041104;28;20111;-66
2023/03/15 11:34:16;;;;;;;5.32;2.13;;;;;;;;;;5038874;28;20109;-65
2023/03/15 11:36:44;;;;;;;6.07;2.15;;;;;;;;;;5037763;28;20031;-65
2023/03/15 11:39:14;;;;;;;4.88;2.30;;;;;;;;;;5049564;28;20088;-65
2023/03/15 11:41:43;;;;;;;5.00;1.67;;;;;;;;;;5041020;28;20021;-67
2023/03/15 11:44:26;;;;;;;9.48;2.10;;;;;;;;;;5049375;28;20037;-66
2023/03/15 11:46:56;;;;;;;5.20;2.10;;;;;;;;;;5041978;28;20055;-66
2023/03/15 11:49:40;;;;;;;4.57;1.70;;;;;;;;;;5036089;28;20068;-66
2023/03/15 11:52:06;;;;;;;4.27;1.60;;;;;;;;;;5048829;28;20041;-65
2023/03/15 11:54:31;;;;;;;4.25;1.60;;;;;;;;;;5045194;28;20061;-65
2023/03/15 11:56:56;;;;;;;7.97;1.70;;;;;;;;;;5045660;28;20119;-66
2023/03/15 11:59:32;;;;;;;6.28;1.70;;;;;;;;;;5042385;28;20017;-65
2023/03/15 12:02:09;;;;;;;5.47;1.30;;;;;;;;;;5048961;28;20388;-67
2023/03/15 12:04:34;;;;;;;4.43;1.55;;;;;;;;;;5040262;28;20022;-67
2023/03/15 12:07:02;;;;;;;3.30;1.37;;;;;;;;;;5039236;28;20017;-67
2023/03/15 12:09:36;;;;;;;3.47;1.50;;;;;;;;;;5049153;28;20788;-67
2023/03/15 12:12:03;;;;;;;3.08;1.30;;;;;;;;;;5051801;28;20029;-67
2023/03/15 12:14:30;;;;;;;5.78;1.73;;;;;;;;;;5050933;28;20059;-67
2023/03/15 12:17:14;;;;;;;3.42;1.48;;;;;;;;;;5047765;28;20475;-68
2023/03/15 12:19:39;;;;;;;3.63;1.17;;;;;;;;;;5049660;28;20021;-66
2023/03/15 12:22:12;;;;;;;4.68;1.40;;;;;;;;;;5018718;28;21048;-67
2023/03/15 12:24:38;;;;;;;2.50;1.05;;;;;;;;;;5003804;28;20032;-67
2023/03/15 12:27:17;;;;;;;4.57;1.52;;;;;;;;;;5005757;28;20044;-67
2023/03/15 12:29:47;;;;;;;11.02;1.92;;;;;;;;;;5015281;28;20819;-68
2023/03/15 12:32:13;;;;;;;3.95;1.63;;;;;;;;;;5005043;28;20090;-68
2023/03/15 12:35:07;;;;;;;3.78;1.10;;;;;;;;;;5005732;28;20040;-68
2023/03/15 12:37:47;;;;;;;3.60;1.35;;;;;;;;;;5029928;28;20479;-67
2023/03/15 12:40:15;;;;;;;2.85;1.25;;;;;;;;;;5045806;28;20100;-65
2023/03/15 12:42:40;;;;;;;2.78;1.38;;;;;;;;;;5006981;28;20962;-68
2023/03/15 12:45:11;;;;;;;3.05;1.08;;;;;;;;;;5006003;28;20128;-66
2023/03/15 12:48:07;;;;;;;4.25;1.63;;;;;;;;;;4996992;28;20029;-66
2023/03/15 12:50:42;;;;;;;4.95;1.60;;;;;;;;;;5002355;28;20158;-66
2023/03/15 12:53:37;;;;;;;3.83;1.60;;;;;;;;;;5006064;28;20035;-66
2023/03/15 12:56:29;;;;;;;5.90;1.50;;;;;;;;;;5020499;28;20072;-66
2023/03/15 12:59:00;;;;;;;4.05;1.63;;;;;;;;;;5034429;28;20046;-67
2023/03/15 13:01:26;;;;;;;3.40;1.23;;;;;;;;;;5006533;28;20017;-66
2023/03/15 13:03:53;;;;;;;2.10;1.00;;;;;;;;;;5005499;28;20032;-66
2023/03/15 13:06:28;;;;;;;4.13;1.73;;;;;;;;;;5001395;28;20832;-66
2023/03/15 13:09:01;;;;;;;5.18;1.58;;;;;;;;;;5004831;28;20143;-66
2023/03/15 13:11:36;;;;;;;3.42;1.42;;;;;;;;;;5003568;28;20040;-65
2023/03/15 13:14:04;;;;;;;3.17;1.50;;;;;;;;;;5003965;28;20028;-66
2023/03/15 13:16:30;;;;;;;3.78;1.77;;;;;;;;;;5005914;28;20554;-65
2023/03/15 13:18:55;;;;;;;3.13;1.48;;;;;;;;;;5005439;28;20539;-66
2023/03/15 13:21:25;;;;;;;4.17;1.70;;;;;;;;;;5006140;28;20903;-65
2023/03/15 13:23:51;;;;;;;4.38;1.60;;;;;;;;;;5008170;28;20035;-66
2023/03/15 13:26:22;;;;;;;2.92;1.38;;;;;;;;;;5005637;28;20021;-65
2023/03/15 13:28:50;;;;;;;3.45;1.35;;;;;;;;;;5013318;28;20033;-65
2023/03/15 13:31:19;;;;;;;2.92;1.58;;;;;;;;;;5049874;28;20114;-65
2023/03/15 13:33:48;;;;;;;6.07;1.42;;;;;;;;;;5035732;28;22129;-65
2023/03/15 13:36:18;;;;;;;3.08;1.25;;;;;;;;;;5003498;28;20026;-65
2023/03/15 13:38:43;;;;;;;3.70;1.65;;;;;;;;;;5000575;28;20032;-65
2023/03/15 13:41:16;;;;;;;3.33;1.75;;;;;;;;;;5000788;28;20805;-65
2023/03/15 13:43:42;;;;;;;3.13;1.48;;;;;;;;;;5001391;28;20095;-65
2023/03/15 13:46:07;;;;;;;3.13;1.30;;;;;;;;;;5008294;28;20021;-65
2023/03/15 13:48:39;;;;;;;3.58;1.20;;;;;;;;;;5000990;28;20032;-65
2023/03/15 13:51:10;;;;;;;2.33;1.30;;;;;;;;;;5036265;28;20503;-65
2023/03/15 13:53:37;;;;;;;3.40;1.58;;;;;;;;;;5037527;28;20035;-66
2023/03/15 13:56:05;;;;;;;2.70;1.25;;;;;;;;;;5006370;28;20025;-66
2023/03/15 13:58:30;;;;;;;3.60;1.35;;;;;;;;;;5005218;28;20021;-66
2023/03/15 14:01:00;;;;;;;3.38;1.40;;;;;;;;;;5009387;28;20032;-66
2023/03/15 14:03:26;;;;;;;3.60;1.60;;;;;;;;;;5052216;28;20035;-66
2023/03/15 14:05:53;;;;;;;2.75;1.20;;;;;;;;;;5044191;28;20081;-66
2023/03/15 14:08:23;;;;;;;3.20;1.30;;;;;;;;;;5053343;28;20039;-66
2023/03/15 14:11:11;;;;;;;1.98;0.90;;;;;;;;;;5050651;28;20041;-66
2023/03/15 14:13:50;;;;;;;2.53;1.17;;;;;;;;;;5053494;28;20547;-67
2023/03/15 14:16:26;;;;;;;2.47;1.08;;;;;;;;;;5050559;28;20048;-67
2023/03/15 14:18:51;;;;;;;2.38;0.88;;;;;;;;;;5053882;28;20037;-66
2023/03/15 14:21:19;;;;;;;2.65;0.90;;;;;;;;;;5049771;28;20029;-66
2023/03/15 14:23:46;;;;;;;3.60;1.38;;;;;;;;;;5053140;28;20486;-65
2023/03/15 14:26:38;;;;;;;2.47;1.15;;;;;;;;;;5050097;28;20025;-66
2023/03/15 14:29:05;;;;;;;6.63;1.35;;;;;;;;;;5050127;28;20044;-66
2023/03/15 14:31:33;;;;;;;3.97;1.00;;;;;;;;;;5021456;28;20078;-65